La Villa, Texas
Current Conditions -  °F | °C
As of 8:35 PM on Wednesday 17 Dec 2014 (Local Time) from KT65 Reporting Station
Overcast Overcast  
Wind Chill: 71°   Ceiling: 2100
Heat Index: 71°   Visibility: 10mi
Dew Point: 65°   Wind: 6mph
Humidity: 81%   Direction: 150°SSE
Pressure: 30.02"   Gusts: NA
Location:  26.3°N, 97.93°W
Report Text: KT65 180235Z AUTO 15005KT 10SM OVC021 22/18 A3002 RMK AO2 T02170183
Loading
Personal Weather Stations






























Interactive Weather Map New forecast layout! Learn more

10-Day Weather Forecast

Advertisements
Track Severe Weather on mobile